createdAt,value
2019-01-11T00:00:05.742Z,5.25
2019-01-11T00:01:14.903Z,6.53
2019-01-11T00:02:19.759Z,6.20
2019-01-11T00:03:25.269Z,6.70
2019-01-11T00:04:30.084Z,5.75
2019-01-11T00:05:35.003Z,6.90
2019-01-11T00:06:39.874Z,6.72
2019-01-11T00:07:44.804Z,6.80
2019-01-11T00:08:49.933Z,5.53
2019-01-11T00:09:54.851Z,5.35
2019-01-11T00:10:59.847Z,6.20
2019-01-11T00:12:04.894Z,6.65
2019-01-11T00:13:10.007Z,6.33
2019-01-11T00:14:14.998Z,6.05
2019-01-11T00:15:20.040Z,6.22
2019-01-11T00:16:24.987Z,5.20
2019-01-11T00:17:29.958Z,5.37
2019-01-11T00:18:37.343Z,5.67
2019-01-11T00:19:42.360Z,6.60
2019-01-11T00:20:50.495Z,5.25
2019-01-11T00:21:55.319Z,5.78
2019-01-11T00:23:00.463Z,4.53
2019-01-11T00:24:06.311Z,6.45
2019-01-11T00:25:11.246Z,5.60
2019-01-11T00:26:16.413Z,5.60
2019-01-11T00:27:21.421Z,6.97
2019-01-11T00:28:26.141Z,5.95
2019-01-11T00:29:31.354Z,6.05
2019-01-11T00:30:36.357Z,5.20
2019-01-11T00:31:41.275Z,5.17
2019-01-11T00:32:49.460Z,6.75
2019-01-11T00:33:54.182Z,5.62
2019-01-11T00:34:59.059Z,6.28
2019-01-11T00:36:04.279Z,7.58
2019-01-11T00:37:09.324Z,6.50
2019-01-11T00:38:14.322Z,5.97
2019-01-11T00:39:19.260Z,6.40
2019-01-11T00:40:24.131Z,5.37
2019-01-11T00:41:29.449Z,8.00
2019-01-11T00:42:34.250Z,6.58
2019-01-11T00:43:39.147Z,5.45
2019-01-11T00:44:43.858Z,5.65
2019-01-11T00:45:48.753Z,7.22
2019-01-11T00:46:53.907Z,7.03
2019-01-11T00:47:58.999Z,7.47
2019-01-11T00:49:04.321Z,8.50
2019-01-11T00:50:09.661Z,8.63
2019-01-11T00:51:14.362Z,7.03
2019-01-11T00:52:19.380Z,7.97
2019-01-11T00:53:24.728Z,8.60
2019-01-11T00:54:30.897Z,7.53
2019-01-11T00:55:36.005Z,6.58
2019-01-11T00:56:41.012Z,7.28
2019-01-11T00:57:46.023Z,7.47
2019-01-11T00:58:51.164Z,7.90
2019-01-11T00:59:56.229Z,7.22
2019-01-11T01:01:01.477Z,7.08
2019-01-11T01:02:07.091Z,7.62
2019-01-11T01:03:12.239Z,8.00
2019-01-11T01:04:17.055Z,9.25
2019-01-11T01:05:22.050Z,6.20
2019-01-11T01:06:27.062Z,7.92
2019-01-11T01:07:32.293Z,7.70
2019-01-11T01:08:37.070Z,7.03
2019-01-11T01:09:42.379Z,7.12
2019-01-11T01:10:47.372Z,8.45
2019-01-11T01:11:52.340Z,8.43
2019-01-11T01:12:57.235Z,8.00
2019-01-11T01:14:02.464Z,10.38
2019-01-11T01:15:09.961Z,9.00
2019-01-11T01:16:14.800Z,9.15
2019-01-11T01:17:19.660Z,8.68
2019-01-11T01:18:24.524Z,8.00
2019-01-11T01:19:29.443Z,7.80
2019-01-11T01:20:34.430Z,8.05
2019-01-11T01:21:39.184Z,7.45
2019-01-11T01:22:44.266Z,8.50
2019-01-11T01:23:49.000Z,8.10
2019-01-11T01:24:53.775Z,9.28
2019-01-11T01:25:58.739Z,7.00
2019-01-11T01:27:04.025Z,7.15
2019-01-11T01:28:09.055Z,7.03
2019-01-11T01:29:13.847Z,8.05
2019-01-11T01:30:19.119Z,9.35
2019-01-11T01:31:24.326Z,8.20
2019-01-11T01:32:29.231Z,7.97
2019-01-11T01:33:34.111Z,7.87
2019-01-11T01:34:38.939Z,9.35
2019-01-11T01:35:43.702Z,8.93
2019-01-11T01:36:48.502Z,8.68
2019-01-11T01:37:53.510Z,8.63
2019-01-11T01:38:58.363Z,9.08
2019-01-11T01:40:03.192Z,8.85
2019-01-11T01:41:08.286Z,8.50
2019-01-11T01:42:13.211Z,8.05
2019-01-11T01:43:18.310Z,9.50
2019-01-11T01:44:23.102Z,8.13
2019-01-11T01:45:28.184Z,7.83
2019-01-11T01:46:33.018Z,9.23
2019-01-11T01:47:37.898Z,9.43
2019-01-11T01:48:42.892Z,8.33
2019-01-11T01:49:47.790Z,9.23
2019-01-11T01:50:52.533Z,9.20
2019-01-11T01:51:57.313Z,9.40
2019-01-11T01:53:02.347Z,10.30
2019-01-11T01:54:07.455Z,9.83
2019-01-11T01:55:12.653Z,8.95
2019-01-11T01:56:17.530Z,9.95
2019-01-11T01:57:25.195Z,10.72
2019-01-11T01:58:30.014Z,11.65
2019-01-11T01:59:34.800Z,9.90
2019-01-11T02:00:39.845Z,10.35
2019-01-11T02:01:51.321Z,11.70
2019-01-11T02:02:56.145Z,10.93
2019-01-11T02:04:01.764Z,10.90
2019-01-11T02:05:07.896Z,9.85
2019-01-11T02:06:12.890Z,8.73
2019-01-11T02:07:17.831Z,8.93
2019-01-11T02:08:22.639Z,11.18
2019-01-11T02:09:27.707Z,12.10
2019-01-11T02:10:32.790Z,11.15
2019-01-11T02:11:37.621Z,10.48
2019-01-11T02:12:44.170Z,10.10
2019-01-11T02:13:48.992Z,10.45
2019-01-11T02:14:53.828Z,11.25
2019-01-11T02:15:59.354Z,10.80
2019-01-11T02:17:04.548Z,12.70
2019-01-11T02:18:09.363Z,10.93
2019-01-11T02:19:14.086Z,11.68
2019-01-11T02:20:19.533Z,10.45
2019-01-11T02:21:24.432Z,12.25
2019-01-11T02:22:29.811Z,11.10
2019-01-11T02:23:34.758Z,12.37
2019-01-11T02:24:39.584Z,11.65
2019-01-11T02:25:46.303Z,11.30
2019-01-11T02:26:51.177Z,11.48
2019-01-11T02:27:59.167Z,12.45
2019-01-11T02:29:04.463Z,11.93
2019-01-11T02:30:13.225Z,11.93
2019-01-11T02:31:18.320Z,12.13
2019-01-11T02:32:23.421Z,13.10
2019-01-11T02:33:28.441Z,13.18
2019-01-11T02:34:33.393Z,12.20
2019-01-11T02:35:38.786Z,13.13
2019-01-11T02:36:43.751Z,14.45
2019-01-11T02:37:48.616Z,13.60
2019-01-11T02:38:53.421Z,13.85
2019-01-11T02:39:58.291Z,12.65
2019-01-11T02:41:03.107Z,13.30
2019-01-11T02:42:07.854Z,12.60
2019-01-11T02:43:12.669Z,12.05
2019-01-11T02:44:17.498Z,13.60
2019-01-11T02:45:22.744Z,12.65
2019-01-11T02:46:27.689Z,13.83
2019-01-11T02:47:32.898Z,14.07
2019-01-11T02:48:37.674Z,15.40
2019-01-11T02:49:42.696Z,13.83
2019-01-11T02:50:47.782Z,14.15
2019-01-11T02:51:52.758Z,13.98
2019-01-11T02:52:57.505Z,12.63
2019-01-11T02:54:02.376Z,13.22
2019-01-11T02:55:08.301Z,12.35
2019-01-11T02:56:13.151Z,13.45
2019-01-11T02:57:18.003Z,13.40
2019-01-11T02:58:22.832Z,15.25
2019-01-11T02:59:27.661Z,15.70
2019-01-11T03:00:33.832Z,14.58
2019-01-11T03:01:38.707Z,15.03
2019-01-11T03:02:43.715Z,14.35
2019-01-11T03:03:48.490Z,17.73
2019-01-11T03:04:53.286Z,22.98
2019-01-11T03:05:58.160Z,64.92
2019-01-11T03:07:02.926Z,28.07
2019-01-11T03:08:07.968Z,19.90
2019-01-11T03:09:12.930Z,16.40
2019-01-11T03:10:19.590Z,17.40
2019-01-11T03:11:24.569Z,14.15
2019-01-11T03:12:29.429Z,19.52
2019-01-11T03:13:34.302Z,12.82
2019-01-11T03:14:39.142Z,13.55
2019-01-11T03:15:43.895Z,13.13
2019-01-11T03:16:49.243Z,15.23
2019-01-11T03:17:54.089Z,13.60
2019-01-11T03:18:58.856Z,13.70
2019-01-11T03:20:03.634Z,13.98
2019-01-11T03:21:08.414Z,13.50
2019-01-11T03:22:13.261Z,15.32
2019-01-11T03:23:18.145Z,13.68
2019-01-11T03:24:22.933Z,14.70
2019-01-11T03:25:27.762Z,14.20
2019-01-11T03:26:32.795Z,14.87
2019-01-11T03:27:37.717Z,15.28
2019-01-11T03:28:42.549Z,14.50
2019-01-11T03:29:47.464Z,15.53
2019-01-11T03:30:52.256Z,15.90
2019-01-11T03:31:57.067Z,15.43
2019-01-11T03:33:01.861Z,15.20
2019-01-11T03:34:06.708Z,14.40
2019-01-11T03:35:21.906Z,16.62
2019-01-11T03:36:26.636Z,15.60
2019-01-11T03:37:31.596Z,18.12
2019-01-11T03:38:36.352Z,13.75
2019-01-11T03:39:41.148Z,15.25
2019-01-11T03:40:45.905Z,14.28
2019-01-11T03:41:59.170Z,21.80
2019-01-11T03:43:04.409Z,16.37
2019-01-11T03:44:09.380Z,17.23
2019-01-11T03:45:15.852Z,15.80
2019-01-11T03:46:20.824Z,14.98
2019-01-11T03:47:26.027Z,15.72
2019-01-11T03:48:31.226Z,14.55
2019-01-11T03:49:36.107Z,14.83
2019-01-11T03:50:41.100Z,14.80
2019-01-11T03:51:45.870Z,16.60
2019-01-11T03:52:50.911Z,14.00
2019-01-11T03:53:56.152Z,16.70
2019-01-11T03:55:01.176Z,18.37
2019-01-11T03:56:06.521Z,16.07
2019-01-11T03:57:11.844Z,16.15
2019-01-11T03:58:16.649Z,15.95
2019-01-11T03:59:21.444Z,17.52
2019-01-11T04:00:26.314Z,16.80
2019-01-11T04:01:31.052Z,17.20
2019-01-11T04:02:36.301Z,18.67
2019-01-11T04:03:41.195Z,17.02
2019-01-11T04:04:46.426Z,20.12
2019-01-11T04:05:51.404Z,19.98
2019-01-11T04:06:56.473Z,20.32
2019-01-11T04:08:01.403Z,19.30
2019-01-11T04:09:09.957Z,19.80
2019-01-11T04:10:17.387Z,20.37
2019-01-11T04:11:22.228Z,19.00
2019-01-11T04:12:27.249Z,18.98
2019-01-11T04:13:32.044Z,19.10
2019-01-11T04:14:36.964Z,20.08
2019-01-11T04:15:42.089Z,17.02
2019-01-11T04:16:46.949Z,17.92
2019-01-11T04:18:23.583Z,19.17
2019-01-11T04:19:28.313Z,18.32
2019-01-11T04:20:36.078Z,19.50
2019-01-11T04:21:42.587Z,18.77
2019-01-11T04:22:57.727Z,18.82
2019-01-11T04:24:02.519Z,18.25
2019-01-11T04:25:09.563Z,21.62
2019-01-11T04:26:14.436Z,19.17
2019-01-11T04:27:19.554Z,21.20
2019-01-11T04:28:24.541Z,19.25
2019-01-11T04:29:30.086Z,18.37
2019-01-11T04:30:34.993Z,21.25
2019-01-11T04:31:39.687Z,20.15
2019-01-11T04:32:44.554Z,19.55
2019-01-11T04:33:49.567Z,19.90
2019-01-11T04:34:54.391Z,19.55
2019-01-11T04:35:59.637Z,19.87
2019-01-11T04:37:04.383Z,20.17
2019-01-11T04:38:09.354Z,19.50
2019-01-11T04:39:14.401Z,19.12
2019-01-11T04:40:20.104Z,20.30
2019-01-11T04:41:24.910Z,20.75
2019-01-11T04:42:30.191Z,19.30
2019-01-11T04:43:35.096Z,20.30
2019-01-11T04:44:39.896Z,19.32
2019-01-11T04:45:44.718Z,17.75
2019-01-11T04:46:49.577Z,19.42
2019-01-11T04:47:54.471Z,18.82
2019-01-11T04:48:59.719Z,18.87
2019-01-11T04:50:09.363Z,19.73
2019-01-11T04:51:11.290Z,19.82
2019-01-11T04:54:22.671Z,18.70
2019-01-11T04:55:27.834Z,19.70
2019-01-11T04:56:32.971Z,21.45
2019-01-11T04:57:37.950Z,21.93
2019-01-11T04:58:43.116Z,20.68
2019-01-11T04:59:48.031Z,21.20
2019-01-11T05:00:53.028Z,22.02
2019-01-11T05:01:58.368Z,19.95
2019-01-11T05:03:03.399Z,21.42
2019-01-11T05:04:08.231Z,20.15
2019-01-11T05:05:13.440Z,21.80
2019-01-11T05:06:18.458Z,19.70
2019-01-11T05:07:23.482Z,22.07
2019-01-11T05:08:28.878Z,22.55
2019-01-11T05:09:33.740Z,21.95
2019-01-11T05:10:38.569Z,22.52
2019-01-11T05:11:43.461Z,22.05
2019-01-11T05:12:48.506Z,22.30
2019-01-11T05:13:56.486Z,22.50
2019-01-11T05:15:01.738Z,21.65
2019-01-11T05:16:06.848Z,20.40
2019-01-11T05:17:11.917Z,19.80
2019-01-11T05:18:16.838Z,20.05
2019-01-11T05:19:21.633Z,21.50
2019-01-11T05:20:26.514Z,21.55
2019-01-11T05:21:31.535Z,18.92
2019-01-11T05:22:36.382Z,19.80
2019-01-11T05:23:41.318Z,20.55
2019-01-11T05:24:46.199Z,20.32
2019-01-11T05:25:51.081Z,21.10
2019-01-11T05:27:03.106Z,24.12
2019-01-11T05:28:08.153Z,21.90
2019-01-11T05:29:13.094Z,23.15
2019-01-11T05:30:19.429Z,23.52
2019-01-11T05:31:24.251Z,21.55
2019-01-11T05:32:29.042Z,22.07
2019-01-11T05:33:33.845Z,25.15
2019-01-11T05:34:38.830Z,23.22
2019-01-11T05:35:43.651Z,21.93
2019-01-11T05:36:48.447Z,23.07
2019-01-11T05:37:56.328Z,22.22
2019-01-11T05:39:01.148Z,27.00
2019-01-11T05:40:08.131Z,26.68
2019-01-11T05:41:12.930Z,23.42
2019-01-11T05:42:17.930Z,21.55
2019-01-11T05:43:22.806Z,23.62
2019-01-11T05:44:27.712Z,24.50
2019-01-11T05:45:34.033Z,20.70
2019-01-11T05:46:38.828Z,23.42
2019-01-11T05:47:43.659Z,27.35
2019-01-11T05:48:48.501Z,23.85
2019-01-11T05:49:53.950Z,41.05
2019-01-11T05:50:58.804Z,37.85
2019-01-11T05:52:03.581Z,37.80
2019-01-11T05:53:10.131Z,35.10
2019-01-11T05:54:14.978Z,26.50
2019-01-11T05:55:33.554Z,28.30
2019-01-11T05:56:38.491Z,22.05
2019-01-11T05:58:02.581Z,20.72
2019-01-11T05:59:08.396Z,20.25
2019-01-11T06:00:13.453Z,21.35
2019-01-11T06:01:18.394Z,19.65
2019-01-11T06:02:23.214Z,20.27
2019-01-11T06:03:28.232Z,20.02
2019-01-11T06:04:44.310Z,19.87
2019-01-11T06:05:49.125Z,19.87
2019-01-11T06:07:25.027Z,20.30
2019-01-11T06:08:34.867Z,17.75
2019-01-11T06:09:39.712Z,19.40
2019-01-11T06:10:44.539Z,20.35
2019-01-11T06:11:49.361Z,19.52
2019-01-11T06:12:54.265Z,19.73
2019-01-11T06:13:59.217Z,19.65
2019-01-11T06:15:05.010Z,20.00
2019-01-11T06:16:09.961Z,21.02
2019-01-11T06:17:14.749Z,20.08
2019-01-11T06:18:19.674Z,19.73
2019-01-11T06:19:24.657Z,19.52
2019-01-11T06:20:30.441Z,18.77
2019-01-11T06:21:35.562Z,20.08
2019-01-11T06:22:40.398Z,19.92
2019-01-11T06:23:45.375Z,18.77
2019-01-11T06:24:50.309Z,20.17
2019-01-11T06:25:55.433Z,20.75
2019-01-11T06:27:00.681Z,18.55
2019-01-11T06:28:05.614Z,22.65
2019-01-11T06:29:18.830Z,21.77
2019-01-11T06:30:24.233Z,19.27
2019-01-11T06:31:29.513Z,18.10
2019-01-11T06:32:34.393Z,19.27
2019-01-11T06:33:39.321Z,19.12
2019-01-11T06:34:44.364Z,19.52
2019-01-11T06:35:49.415Z,27.70
2019-01-11T06:36:55.931Z,24.52
2019-01-11T06:38:00.764Z,24.82
2019-01-11T06:39:08.178Z,23.60
2019-01-11T06:40:14.769Z,21.70
2019-01-11T06:41:20.214Z,24.60
2019-01-11T06:42:26.845Z,21.42
2019-01-11T06:43:31.959Z,22.22
2019-01-11T06:44:38.998Z,19.67
2019-01-11T06:45:43.330Z,19.80
2019-01-11T06:46:48.145Z,21.25
2019-01-11T06:47:53.026Z,20.50
2019-01-11T06:48:58.382Z,17.95
2019-01-11T06:50:03.218Z,20.70
2019-01-11T06:51:08.153Z,20.23
2019-01-11T06:52:15.582Z,20.05
2019-01-11T06:53:20.913Z,18.87
2019-01-11T06:54:49.194Z,18.25
2019-01-11T06:55:54.042Z,20.25
2019-01-11T06:56:58.857Z,18.80
2019-01-11T06:58:03.804Z,19.82
2019-01-11T06:59:12.343Z,19.37
2019-01-11T07:00:17.532Z,20.43
2019-01-11T07:01:22.883Z,22.73
2019-01-11T07:02:27.823Z,20.60
2019-01-11T07:03:32.982Z,26.33
2019-01-11T07:04:37.729Z,20.30
2019-01-11T07:05:42.689Z,22.00
2019-01-11T07:06:47.561Z,20.95
2019-01-11T07:07:52.353Z,21.27
2019-01-11T07:08:57.478Z,19.12
2019-01-11T07:10:02.378Z,20.05
2019-01-11T07:11:07.456Z,22.35
2019-01-11T07:12:12.301Z,19.80
2019-01-11T07:13:17.096Z,19.67
2019-01-11T07:14:21.903Z,19.07
2019-01-11T07:15:27.043Z,19.98
2019-01-11T07:16:31.958Z,18.62
2019-01-11T07:17:36.804Z,19.67
2019-01-11T07:18:45.130Z,18.73
2019-01-11T07:19:50.332Z,19.50
2019-01-11T07:20:55.177Z,19.87
2019-01-11T07:22:00.014Z,19.00
2019-01-11T07:23:04.978Z,20.27
2019-01-11T07:24:10.162Z,19.40
2019-01-11T07:25:15.519Z,19.87
2019-01-11T07:26:20.452Z,20.10
2019-01-11T07:27:26.578Z,18.62
2019-01-11T07:28:31.896Z,20.82
2019-01-11T07:29:36.859Z,18.25
2019-01-11T07:31:06.581Z,19.02
2019-01-11T07:32:11.472Z,20.25
2019-01-11T07:33:27.286Z,19.40
2019-01-11T07:34:32.590Z,22.52
2019-01-11T07:35:50.824Z,22.42
2019-01-11T07:36:57.196Z,21.90
2019-01-11T07:38:02.111Z,22.20
2019-01-11T07:39:26.741Z,20.75
2019-01-11T07:40:33.096Z,23.02
2019-01-11T07:41:38.079Z,21.97
2019-01-11T07:42:43.501Z,22.35
2019-01-11T07:43:48.449Z,21.17
2019-01-11T07:44:53.524Z,20.60
2019-01-11T07:45:58.422Z,20.90
2019-01-11T07:47:03.446Z,19.85
2019-01-11T07:48:09.511Z,20.12
2019-01-11T07:49:15.329Z,21.20
2019-01-11T07:50:20.317Z,20.08
2019-01-11T07:51:25.302Z,22.32
2019-01-11T07:52:36.329Z,21.80
2019-01-11T07:53:41.246Z,20.37
2019-01-11T07:54:46.808Z,24.30
2019-01-11T07:55:51.800Z,24.57
2019-01-11T07:57:00.034Z,21.30
2019-01-11T07:58:05.188Z,23.20
2019-01-11T07:59:10.243Z,22.35
2019-01-11T08:00:25.691Z,21.82
2019-01-11T08:01:38.732Z,23.20
2019-01-11T08:02:43.998Z,23.20
2019-01-11T08:03:49.063Z,19.42
2019-01-11T08:04:54.019Z,19.73
2019-01-11T08:05:59.134Z,20.35
2019-01-11T08:07:07.505Z,17.92
2019-01-11T08:08:11.646Z,19.40
2019-01-11T08:09:16.698Z,21.00
2019-01-11T08:10:21.842Z,20.12
2019-01-11T08:11:26.782Z,19.42
2019-01-11T08:12:32.645Z,19.15
2019-01-11T08:13:40.846Z,20.62
2019-01-11T08:14:46.033Z,19.15
2019-01-11T08:15:50.961Z,19.85
2019-01-11T08:16:56.088Z,20.08
2019-01-11T08:18:01.191Z,18.48
2019-01-11T08:19:06.599Z,19.55
2019-01-11T08:20:11.775Z,19.45
2019-01-11T08:21:16.740Z,20.23
2019-01-11T08:22:43.355Z,20.05
2019-01-11T08:23:48.245Z,19.75
2019-01-11T08:25:02.096Z,20.30
2019-01-11T08:26:07.092Z,19.92
2019-01-11T08:27:12.026Z,19.20
2019-01-11T08:28:18.329Z,20.40
2019-01-11T08:29:23.241Z,20.17
2019-01-11T08:30:28.320Z,19.37
2019-01-11T08:31:36.617Z,19.52
2019-01-11T08:32:41.548Z,20.30
2019-01-11T08:33:46.726Z,20.52
2019-01-11T08:34:51.906Z,20.00
2019-01-11T08:36:00.014Z,24.20
2019-01-11T08:37:05.880Z,22.85
2019-01-11T08:38:11.416Z,22.10
2019-01-11T08:39:16.609Z,22.30
2019-01-11T08:40:21.559Z,22.95
2019-01-11T08:41:28.431Z,22.98
2019-01-11T08:42:34.804Z,23.25
2019-01-11T08:43:40.301Z,21.45
2019-01-11T08:44:47.184Z,21.77
2019-01-11T08:45:55.989Z,21.73
2019-01-11T08:47:01.340Z,21.20
2019-01-11T08:48:07.683Z,23.80
2019-01-11T08:49:12.597Z,22.25
2019-01-11T08:50:19.264Z,21.55
2019-01-11T08:51:27.573Z,20.70
2019-01-11T08:52:33.282Z,23.15
2019-01-11T08:53:38.213Z,20.23
2019-01-11T08:54:43.191Z,22.85
2019-01-11T08:55:48.271Z,21.35
2019-01-11T08:56:53.837Z,23.80
2019-01-11T08:58:03.017Z,22.35
2019-01-11T08:59:14.490Z,22.65
2019-01-11T09:00:19.429Z,20.30
2019-01-11T09:01:24.805Z,20.10
2019-01-11T09:02:30.093Z,21.93
2019-01-11T09:03:35.327Z,21.77
2019-01-11T09:04:40.323Z,20.32
2019-01-11T09:05:45.149Z,20.70
2019-01-11T09:06:50.207Z,20.40
2019-01-11T09:07:55.081Z,20.35
2019-01-11T09:09:00.017Z,20.40
2019-01-11T09:10:06.064Z,20.15
2019-01-11T09:11:11.093Z,19.75
2019-01-11T09:12:17.263Z,19.90
2019-01-11T09:13:29.062Z,18.77
2019-01-11T09:14:50.657Z,20.37
2019-01-11T09:15:55.953Z,20.70
2019-01-11T09:17:00.785Z,20.15
2019-01-11T09:18:13.550Z,19.67
2019-01-11T09:19:20.074Z,19.27
2019-01-11T09:20:25.090Z,20.77
2019-01-11T09:21:29.934Z,20.55
2019-01-11T09:22:35.251Z,19.32
2019-01-11T09:23:40.211Z,20.95
2019-01-11T09:24:48.524Z,19.07
2019-01-11T09:25:55.663Z,21.30
2019-01-11T09:27:02.463Z,19.35
2019-01-11T09:28:07.992Z,20.32
2019-01-11T09:29:12.958Z,19.73
2019-01-11T09:30:17.793Z,19.70
2019-01-11T09:31:22.777Z,20.10
2019-01-11T09:32:27.582Z,20.05
2019-01-11T09:33:32.426Z,19.10
2019-01-11T09:34:41.561Z,19.30
2019-01-11T09:35:49.454Z,18.40
2019-01-11T09:36:54.475Z,18.25
2019-01-11T09:38:00.075Z,19.40
2019-01-11T09:39:10.783Z,18.52
2019-01-11T09:40:16.434Z,21.42
2019-01-11T09:41:24.329Z,19.50
2019-01-11T09:42:29.147Z,18.60
2019-01-11T09:43:35.284Z,18.57
2019-01-11T09:44:40.217Z,18.67
2019-01-11T09:45:45.050Z,19.25
2019-01-11T09:46:50.345Z,18.80
2019-01-11T09:47:56.763Z,19.12
2019-01-11T09:49:01.661Z,20.40
2019-01-11T09:50:07.465Z,20.05
2019-01-11T09:51:15.863Z,20.15
2019-01-11T09:52:19.070Z,18.55
2019-01-11T09:53:26.040Z,18.85
2019-01-11T09:54:30.929Z,19.98
2019-01-11T09:55:35.801Z,23.07
2019-01-11T09:56:40.899Z,21.30
2019-01-11T09:57:45.730Z,20.75
2019-01-11T09:58:53.600Z,20.23
2019-01-11T09:59:58.541Z,21.02
2019-01-11T10:01:03.556Z,21.37
2019-01-11T10:02:25.738Z,19.87
2019-01-11T10:03:30.653Z,18.50
2019-01-11T10:04:40.855Z,19.85
2019-01-11T10:05:45.857Z,19.65
2019-01-11T10:07:07.642Z,19.73
2019-01-11T10:08:15.061Z,19.50
2019-01-11T10:09:20.282Z,20.65
2019-01-11T10:10:25.363Z,20.12
2019-01-11T10:11:30.316Z,20.12
2019-01-11T10:12:35.162Z,20.25
2019-01-11T10:13:39.992Z,20.50
2019-01-11T10:14:44.935Z,20.15
2019-01-11T10:15:49.821Z,20.85
2019-01-11T10:16:54.766Z,20.77
2019-01-11T10:17:59.686Z,21.10
2019-01-11T10:19:04.499Z,21.62
2019-01-11T10:20:10.421Z,20.37
2019-01-11T10:21:15.294Z,20.10
2019-01-11T10:22:20.217Z,19.37
2019-01-11T10:23:32.285Z,18.95
2019-01-11T10:24:37.947Z,20.55
2019-01-11T10:25:46.118Z,20.97
2019-01-11T10:26:55.696Z,20.15
2019-01-11T10:28:05.799Z,20.00
2019-01-11T10:29:12.449Z,18.98
2019-01-11T10:30:21.016Z,18.80
2019-01-11T10:31:25.445Z,21.23
2019-01-11T10:32:30.314Z,22.62
2019-01-11T10:33:36.270Z,19.23
2019-01-11T10:34:44.382Z,19.62
2019-01-11T10:35:49.761Z,20.85
2019-01-11T10:36:54.586Z,19.90
2019-01-11T10:38:00.973Z,21.52
2019-01-11T10:39:08.305Z,19.87
2019-01-11T10:40:14.985Z,20.70
2019-01-11T10:41:23.195Z,21.40
2019-01-11T10:42:32.713Z,20.10
2019-01-11T10:43:37.737Z,21.17
2019-01-11T10:44:42.574Z,21.02
2019-01-11T10:45:47.560Z,20.12
2019-01-11T10:46:56.745Z,21.95
2019-01-11T10:48:02.965Z,20.30
2019-01-11T10:49:07.796Z,21.07
2019-01-11T10:50:15.090Z,20.48
2019-01-11T10:51:19.982Z,20.52
2019-01-11T10:52:29.011Z,24.30
2019-01-11T10:53:34.020Z,20.77
2019-01-11T10:54:43.469Z,21.45
2019-01-11T10:55:48.344Z,22.37
2019-01-11T10:56:56.432Z,20.88
2019-01-11T10:58:01.499Z,20.75
2019-01-11T10:59:06.586Z,20.85
2019-01-11T11:00:21.179Z,21.10
2019-01-11T11:01:31.068Z,22.90
2019-01-11T11:02:35.938Z,22.05
2019-01-11T11:03:40.794Z,20.88
2019-01-11T11:04:47.750Z,23.00
2019-01-11T11:05:52.655Z,22.70
2019-01-11T11:07:09.995Z,21.00
2019-01-11T11:08:14.882Z,22.00
2019-01-11T11:09:19.788Z,22.93
2019-01-11T11:10:29.257Z,23.10
2019-01-11T11:11:34.576Z,23.83
2019-01-11T11:12:39.937Z,23.65
2019-01-11T11:13:46.545Z,23.57
2019-01-11T11:15:00.623Z,21.85
2019-01-11T11:16:10.804Z,22.52
2019-01-11T11:17:19.705Z,22.60
2019-01-11T11:18:25.180Z,22.48
2019-01-11T11:19:32.801Z,23.25
2019-01-11T11:20:40.557Z,23.50
2019-01-11T11:21:45.474Z,23.27
2019-01-11T11:22:50.563Z,24.00
2019-01-11T11:23:55.427Z,25.70
2019-01-11T11:25:03.444Z,23.25
2019-01-11T11:26:08.298Z,23.35
2019-01-11T11:27:16.001Z,24.52
2019-01-11T11:28:24.185Z,23.22
2019-01-11T11:29:32.414Z,22.67
2019-01-11T11:30:40.817Z,24.07
2019-01-11T11:31:45.615Z,25.05
2019-01-11T11:32:58.900Z,24.45
2019-01-11T11:34:05.752Z,24.65
2019-01-11T11:35:12.053Z,24.25
2019-01-11T11:36:17.194Z,24.50
2019-01-11T11:37:23.729Z,26.00
2019-01-11T11:38:28.592Z,26.57
2019-01-11T11:39:33.696Z,25.70
2019-01-11T11:40:40.722Z,26.50
2019-01-11T11:41:47.809Z,29.35
2019-01-11T11:42:55.505Z,38.45
2019-01-11T11:44:03.145Z,26.90
2019-01-11T11:45:08.585Z,106.97
2019-01-11T11:46:25.140Z,91.65
2019-01-11T11:47:28.753Z,38.28
2019-01-11T11:48:34.034Z,26.73
2019-01-11T11:49:42.378Z,28.62
2019-01-11T11:50:49.260Z,29.77
2019-01-11T11:51:55.790Z,28.62
2019-01-11T11:53:01.083Z,27.15
2019-01-11T11:54:06.340Z,26.00
2019-01-11T11:55:14.473Z,27.22
2019-01-11T11:56:19.354Z,26.45
2019-01-11T11:57:25.642Z,27.07
2019-01-11T11:58:30.781Z,25.75
2019-01-11T11:59:36.187Z,26.48
2019-01-11T12:00:41.123Z,24.05
2019-01-11T12:01:46.810Z,25.70
2019-01-11T12:02:51.957Z,27.95
2019-01-11T12:03:59.461Z,24.92
2019-01-11T12:05:07.185Z,25.85
2019-01-11T12:06:12.373Z,27.50
2019-01-11T12:07:26.380Z,25.30
2019-01-11T12:08:28.986Z,25.72
2019-01-11T12:09:34.061Z,27.62
2019-01-11T12:10:42.015Z,24.87
2019-01-11T12:11:47.304Z,24.75
2019-01-11T12:12:52.397Z,23.98
2019-01-11T12:13:57.591Z,25.23
2019-01-11T12:15:04.087Z,24.92
2019-01-11T12:16:09.060Z,25.70
2019-01-11T12:17:16.083Z,25.65
2019-01-11T12:18:23.050Z,26.07
2019-01-11T12:19:28.026Z,25.12
2019-01-11T12:20:41.670Z,25.65
2019-01-11T12:21:47.904Z,22.93
2019-01-11T12:22:53.180Z,24.20
2019-01-11T12:23:58.574Z,25.62
2019-01-11T12:25:07.504Z,27.30
2019-01-11T12:26:13.489Z,26.40
2019-01-11T12:27:21.146Z,26.05
2019-01-11T12:28:26.147Z,27.15
2019-01-11T12:29:31.190Z,25.60
2019-01-11T12:30:36.352Z,25.62
2019-01-11T12:31:41.545Z,26.68
2019-01-11T12:32:46.701Z,25.00
2019-01-11T12:33:53.337Z,26.30
2019-01-11T12:34:58.442Z,26.40
2019-01-11T12:36:05.761Z,28.05
2019-01-11T12:37:11.192Z,26.23
2019-01-11T12:38:16.077Z,25.27
2019-01-11T12:39:30.226Z,24.90
2019-01-11T12:40:35.257Z,25.45
2019-01-11T12:41:40.273Z,28.75
2019-01-11T12:42:48.281Z,28.85
2019-01-11T12:44:00.753Z,28.55
2019-01-11T12:45:09.634Z,29.00
2019-01-11T12:46:14.748Z,28.77
2019-01-11T12:47:19.801Z,28.35
2019-01-11T12:48:26.732Z,26.70
2019-01-11T12:49:34.116Z,26.95
2019-01-11T12:50:39.657Z,25.95
2019-01-11T12:51:45.056Z,26.90
2019-01-11T12:52:50.392Z,27.75
2019-01-11T12:53:55.240Z,27.17
2019-01-11T12:55:00.223Z,26.68
2019-01-11T12:56:06.106Z,25.50
2019-01-11T12:57:12.007Z,27.05
2019-01-11T12:58:17.789Z,26.65
2019-01-11T12:59:28.410Z,26.90
2019-01-11T13:00:33.675Z,26.27
2019-01-11T13:01:39.022Z,25.05
2019-01-11T13:02:44.494Z,28.32
2019-01-11T13:03:49.974Z,26.35
2019-01-11T13:04:55.203Z,32.95
2019-01-11T13:06:00.311Z,37.45
2019-01-11T13:07:05.507Z,27.45
2019-01-11T13:08:11.074Z,28.52
2019-01-11T13:09:17.008Z,24.77
2019-01-11T13:10:25.730Z,30.45
2019-01-11T13:11:30.758Z,28.40
2019-01-11T13:12:37.802Z,27.48
2019-01-11T13:13:43.934Z,26.73
2019-01-11T13:14:52.628Z,34.13
2019-01-11T13:16:02.053Z,28.52
2019-01-11T13:17:07.219Z,27.90
2019-01-11T13:18:12.462Z,27.40
2019-01-11T13:19:21.463Z,28.38
2019-01-11T13:20:29.185Z,24.45
2019-01-11T13:21:35.635Z,23.38
2019-01-11T13:22:41.208Z,26.68
2019-01-11T13:23:49.368Z,24.20
2019-01-11T13:24:54.727Z,25.10
2019-01-11T13:25:59.820Z,25.62
2019-01-11T13:27:06.702Z,23.32
2019-01-11T13:28:36.576Z,23.35
2019-01-11T13:29:46.263Z,24.75
2019-01-11T13:30:50.485Z,26.20
2019-01-11T13:31:55.483Z,26.65
2019-01-11T13:33:00.303Z,29.92
2019-01-11T13:34:08.002Z,27.90
2019-01-11T13:35:13.587Z,25.12
2019-01-11T13:36:28.278Z,26.95
2019-01-11T13:37:31.376Z,25.05
2019-01-11T13:38:36.433Z,26.02
2019-01-11T13:39:41.555Z,29.23
2019-01-11T13:40:46.870Z,27.00
2019-01-11T13:41:52.120Z,25.50
2019-01-11T13:43:01.419Z,25.75
2019-01-11T13:44:08.159Z,27.85
2019-01-11T13:45:17.567Z,26.20
2019-01-11T13:46:23.278Z,26.23
2019-01-11T13:47:32.220Z,24.77
2019-01-11T13:48:37.142Z,26.77
2019-01-11T13:49:42.329Z,24.12
2019-01-11T13:50:47.284Z,26.15
2019-01-11T13:51:52.336Z,22.52
2019-01-11T13:52:57.569Z,26.42
2019-01-11T13:54:07.151Z,23.87
2019-01-11T13:55:12.311Z,25.80
2019-01-11T13:56:22.746Z,25.45
2019-01-11T13:57:34.764Z,24.65
2019-01-11T13:58:36.686Z,25.15
2019-01-11T13:59:41.759Z,23.83
2019-01-11T14:00:46.997Z,26.05
2019-01-11T14:02:09.306Z,24.12
2019-01-11T14:03:15.099Z,25.05
2019-01-11T14:04:20.111Z,26.12
2019-01-11T14:05:25.282Z,26.75
2019-01-11T14:06:31.718Z,24.60
2019-01-11T14:07:39.208Z,25.40
2019-01-11T14:08:47.189Z,24.65
2019-01-11T14:09:52.353Z,27.32
2019-01-11T14:11:03.189Z,23.85
2019-01-11T14:12:11.294Z,24.50
2019-01-11T14:13:16.334Z,24.30
2019-01-11T14:14:26.684Z,23.05
2019-01-11T14:15:34.553Z,23.80
2019-01-11T14:16:39.492Z,28.45
2019-01-11T14:17:44.621Z,27.90
2019-01-11T14:18:49.571Z,27.93